Butler, Kentucky
Current Conditions -  °F | °C
As of 6:53 PM on Monday 20 Oct 2014 (Local Time) from KLUK Reporting Station
Scattered Clouds Scattered Clouds  
Wind Chill: 60°   Ceiling: Unl
Heat Index: 60°   Visibility: 10mi
Dew Point: 51°   Wind: 9mph
Humidity: 72%   Direction: 210°SSW
Pressure: 29.88"   Gusts: NA
Location:  38.79°N, 84.37°W
Report Text: KLUK 202253Z 21008KT 10SM SCT110 16/11 A2988 RMK AO2 SLP117 T01560106
Loading
Personal Weather Stations






























Interactive Weather Map
Tropical Storm Tracking
New forecast layout! Learn more

10-Day Weather Forecast

Advertisements
Track Severe Weather on mobile